Time;durP1;ratioP1;P1;durP2;ratioP2;P2;SDS_P1;SDS_P2;PMS_P1;PMS_P2;Temp;Humidity;BMP_temperature;BMP_pressure;BME280_temperature;BME280_humidity;BME280_pressure;Samples;Min_cycle;Max_cycle;Signal;HPM_P1;HPM_P2
2022/10/19 00:00:29;;;;;;;13.40;5.03;;;;;;;7.93;97.61;102690.31;5006367;29;20364;-73
2022/10/19 00:03:00;;;;;;;14.00;5.50;;;;;;;7.84;97.61;102688.34;5007566;29;20069;-72
2022/10/19 00:05:32;;;;;;;14.47;5.73;;;;;;;7.79;97.83;102687.34;5007582;29;20047;-72
2022/10/19 00:08:03;;;;;;;12.20;4.90;;;;;;;7.77;98.10;102690.72;5007574;29;20047;-73
2022/10/19 00:10:39;;;;;;;10.77;5.13;;;;;;;7.67;98.64;102682.63;5007177;29;20513;-73
2022/10/19 00:13:10;;;;;;;10.73;5.55;;;;;;;7.60;98.83;102685.00;5007369;29;20030;-73
2022/10/19 00:15:41;;;;;;;16.67;7.33;;;;;;;7.53;99.40;102676.16;5007469;29;20031;-72
2022/10/19 00:18:13;;;;;;;8.73;5.00;;;;;;;7.47;99.48;102671.66;5007021;29;20392;-73
2022/10/19 00:20:44;;;;;;;13.23;5.57;;;;;;;7.42;99.92;102680.13;5007091;29;20053;-73
2022/10/19 00:23:15;;;;;;;13.63;4.77;;;;;;;7.49;100.00;102684.69;5007019;29;20125;-72
2022/10/19 00:25:54;;;;;;;14.50;6.17;;;;;;;7.40;100.00;102679.22;5007568;29;20038;-72
2022/10/19 00:28:26;;;;;;;12.68;5.35;;;;;;;7.37;100.00;102668.75;5007046;29;20045;-72
2022/10/19 00:31:06;;;;;;;12.70;5.73;;;;;;;7.38;100.00;102662.72;5006974;29;20043;-72
2022/10/19 00:33:38;;;;;;;14.68;5.65;;;;;;;7.30;100.00;102673.72;5007060;29;20034;-73
2022/10/19 00:36:23;;;;;;;13.23;5.75;;;;;;;7.30;100.00;102665.94;5006909;29;20039;-72
2022/10/19 00:38:55;;;;;;;12.95;6.32;;;;;;;7.33;100.00;102656.53;5006885;29;20046;-72
2022/10/19 00:41:29;;;;;;;12.85;5.78;;;;;;;7.24;100.00;102649.31;5006804;29;20524;-72
2022/10/19 00:44:25;;;;;;;12.15;6.07;;;;;;;7.17;100.00;102665.53;5006749;29;20055;-72
2022/10/19 00:47:00;;;;;;;11.73;5.90;;;;;;;7.14;100.00;102658.53;5006524;29;20042;-72
2022/10/19 00:49:36;;;;;;;12.35;5.75;;;;;;;7.16;100.00;102659.44;5007145;29;20034;-72
2022/10/19 00:52:11;;;;;;;13.70;5.70;;;;;;;7.28;100.00;102671.94;5006739;29;20071;-72
2022/10/19 00:54:44;;;;;;;12.32;6.53;;;;;;;7.20;100.00;102673.41;5006590;29;20042;-72
2022/10/19 00:57:16;;;;;;;13.40;6.30;;;;;;;7.24;100.00;102670.06;5007275;29;20031;-72
2022/10/19 00:59:48;;;;;;;16.27;6.77;;;;;;;7.21;100.00;102676.06;5006145;29;20125;-72
2022/10/19 01:02:19;;;;;;;13.85;6.03;;;;;;;7.15;100.00;102678.47;5006044;29;20030;-71
2022/10/19 01:04:52;;;;;;;16.00;5.57;;;;;;;7.06;100.00;102673.84;5006388;29;20125;-72
2022/10/19 01:07:25;;;;;;;11.70;6.40;;;;;;;7.11;100.00;102674.00;5005294;29;20034;-71
2022/10/19 01:09:57;;;;;;;10.13;6.13;;;;;;;7.04;100.00;102666.88;5005091;29;20038;-72
2022/10/19 01:12:35;;;;;;;12.13;6.13;;;;;;;7.12;100.00;102665.38;5006116;29;20045;-72
2022/10/19 01:15:22;;;;;;;14.23;6.40;;;;;;;7.05;100.00;102669.50;5006745;29;20041;-72
2022/10/19 01:18:05;;;;;;;12.68;5.70;;;;;;;7.05;100.00;102660.81;5006182;29;20041;-72
2022/10/19 01:20:55;;;;;;;11.77;5.40;;;;;;;6.94;100.00;102668.28;5005784;29;20054;-72
2022/10/19 01:23:44;;;;;;;14.63;7.03;;;;;;;6.91;100.00;102676.81;5006055;29;20046;-72
2022/10/19 01:26:36;;;;;;;11.52;5.63;;;;;;;6.87;100.00;102674.94;5006244;29;20091;-71
2022/10/19 01:29:13;;;;;;;10.57;5.70;;;;;;;6.92;100.00;102670.81;5006053;29;20031;-72
2022/10/19 01:32:15;;;;;;;12.18;6.03;;;;;;;6.79;100.00;102670.34;5005184;29;20106;-72
2022/10/19 01:34:58;;;;;;;15.23;6.20;;;;;;;6.75;100.00;102664.19;5006201;29;20038;-72
2022/10/19 01:37:39;;;;;;;12.43;6.20;;;;;;;6.70;100.00;102661.44;5005993;29;20408;-72
2022/10/19 01:40:22;;;;;;;16.30;6.25;;;;;;;6.78;100.00;102666.00;5006391;29;20038;-71
2022/10/19 01:43:03;;;;;;;14.90;6.20;;;;;;;6.76;100.00;102658.16;5006024;29;20051;-72
2022/10/19 01:45:51;;;;;;;15.57;6.20;;;;;;;6.65;100.00;102664.69;5007156;29;20050;-72
2022/10/19 01:48:33;;;;;;;13.07;6.30;;;;;;;6.60;100.00;102658.50;5008396;29;20027;-72
2022/10/19 01:51:12;;;;;;;12.68;6.22;;;;;;;6.60;100.00;102666.25;5012036;29;20460;-72
2022/10/19 01:53:50;;;;;;;10.25;6.75;;;;;;;6.56;100.00;102666.16;5008812;29;20483;-72
2022/10/19 01:56:25;;;;;;;20.67;7.15;;;;;;;6.55;100.00;102667.00;5006297;29;20034;-72
2022/10/19 01:59:01;;;;;;;21.73;6.55;;;;;;;6.54;100.00;102661.78;5006103;29;20403;-72
2022/10/19 02:01:35;;;;;;;12.68;6.35;;;;;;;6.50;100.00;102650.41;5005775;29;20475;-72
2022/10/19 02:04:08;;;;;;;19.88;7.63;;;;;;;6.48;100.00;102659.84;5005981;29;20475;-73
2022/10/19 02:06:40;;;;;;;12.20;5.82;;;;;;;6.41;100.00;102637.16;5006840;29;20092;-72
2022/10/19 02:09:16;;;;;;;13.97;7.30;;;;;;;6.42;100.00;102638.03;5005886;29;20460;-72
2022/10/19 02:11:53;;;;;;;19.25;7.18;;;;;;;6.40;100.00;102640.56;5006069;29;20137;-72
2022/10/19 02:14:30;;;;;;;12.57;6.55;;;;;;;6.40;100.00;102630.19;5007444;29;20046;-72
2022/10/19 02:17:08;;;;;;;11.57;5.40;;;;;;;6.33;100.00;102625.66;5009849;29;20038;-72
2022/10/19 02:19:40;;;;;;;13.73;6.57;;;;;;;6.32;100.00;102632.53;5009445;29;20491;-72
2022/10/19 02:22:12;;;;;;;14.73;6.27;;;;;;;6.23;100.00;102623.56;5009450;29;20047;-72
2022/10/19 02:24:44;;;;;;;11.63;6.22;;;;;;;6.24;100.00;102615.84;5009392;29;20050;-72
2022/10/19 02:27:16;;;;;;;12.67;7.07;;;;;;;6.26;100.00;102623.66;5009572;29;20035;-72
2022/10/19 02:29:47;;;;;;;13.20;6.43;;;;;;;6.15;100.00;102613.81;5009555;29;20031;-71
2022/10/19 02:32:19;;;;;;;14.97;8.17;;;;;;;6.21;100.00;102618.31;5009609;29;20388;-72
2022/10/19 02:34:50;;;;;;;13.10;6.70;;;;;;;6.22;100.00;102614.03;5009534;29;20365;-72
2022/10/19 02:37:23;;;;;;;12.97;5.87;;;;;;;6.14;100.00;102612.06;5008863;29;20046;-72
2022/10/19 02:39:54;;;;;;;18.02;6.80;;;;;;;6.12;100.00;102611.13;5007940;29;20038;-72
2022/10/19 02:42:53;;;;;;;13.47;6.47;;;;;;;6.06;100.00;102602.28;5008932;29;20051;-71
2022/10/19 02:45:29;;;;;;;13.75;7.03;;;;;;;6.02;100.00;102602.16;5008444;29;20069;-72
2022/10/19 02:48:08;;;;;;;9.88;6.75;;;;;;;6.02;100.00;102602.16;5008702;29;20088;-72
2022/10/19 02:50:45;;;;;;;14.98;5.90;;;;;;;5.99;100.00;102593.41;5009177;29;20038;-72
2022/10/19 02:53:17;;;;;;;15.35;7.03;;;;;;;5.94;100.00;102594.91;5009544;29;20468;-71
2022/10/19 02:55:49;;;;;;;10.03;6.10;;;;;;;5.90;100.00;102600.81;5009349;29;20043;-72
2022/10/19 02:58:20;;;;;;;14.95;6.20;;;;;;;5.92;100.00;102601.72;5009240;29;20283;-73
2022/10/19 03:00:52;;;;;;;10.57;5.37;;;;;;;5.83;100.00;102608.34;5007616;29;20030;-73
2022/10/19 03:03:23;;;;;;;16.17;7.50;;;;;;;5.80;100.00;102600.47;5008694;29;20066;-72
2022/10/19 03:05:54;;;;;;;11.80;6.10;;;;;;;5.82;100.00;102601.41;5007465;29;20039;-73
2022/10/19 03:08:26;;;;;;;15.00;6.13;;;;;;;5.75;100.00;102598.56;5009062;29;20543;-73
2022/10/19 03:10:58;;;;;;;11.63;5.97;;;;;;;5.70;100.00;102589.72;5008319;29;20058;-72
2022/10/19 03:13:29;;;;;;;10.52;5.40;;;;;;;5.69;100.00;102599.19;5008440;29;20042;-72
2022/10/19 03:16:09;;;;;;;13.93;5.90;;;;;;;5.65;100.00;102605.97;5008811;29;20039;-72
2022/10/19 03:18:40;;;;;;;17.00;6.90;;;;;;;5.63;100.00;102604.16;5008428;29;20062;-72
2022/10/19 03:21:12;;;;;;;14.07;6.37;;;;;;;5.67;100.00;102606.03;5008131;29;20081;-73
2022/10/19 03:23:43;;;;;;;10.57;6.60;;;;;;;5.66;100.00;102617.19;5008331;29;20532;-72
2022/10/19 03:26:16;;;;;;;15.67;6.83;;;;;;;5.59;100.00;102604.88;5007825;29;20035;-73
2022/10/19 03:28:47;;;;;;;;;;;;;;;5.56;100.00;102599.59;5008304;29;20079;-73
2022/10/19 03:31:19;;;;;;;10.13;5.68;;;;;;;5.53;100.00;102602.94;5007952;29;20381;-73
2022/10/19 03:33:50;;;;;;;9.73;5.50;;;;;;;5.53;100.00;102604.63;5008671;29;20087;-72
2022/10/19 03:36:28;;;;;;;10.80;5.87;;;;;;;5.51;100.00;102598.53;5008374;29;20159;-72
2022/10/19 03:39:02;;;;;;;12.07;5.60;;;;;;;5.47;100.00;102598.41;5008259;29;20034;-72
2022/10/19 03:41:35;;;;;;;11.38;5.82;;;;;;;5.44;100.00;102595.72;5008284;29;20110;-71
2022/10/19 03:44:07;;;;;;;;;;;;;;;5.39;100.00;102598.94;5008889;29;20055;-72
2022/10/19 03:46:38;;;;;;;11.05;6.07;;;;;;;5.41;100.00;102598.19;5006676;29;19947;-72
2022/10/19 03:49:10;;;;;;;13.70;6.40;;;;;;;5.38;100.00;102598.06;5007629;29;20035;-72
2022/10/19 03:51:42;;;;;;;12.98;5.70;;;;;;;5.35;100.00;102597.94;5007785;29;20035;-72
2022/10/19 03:54:15;;;;;;;15.33;6.17;;;;;;;5.25;100.00;102595.84;5008022;29;20039;-72
2022/10/19 03:56:46;;;;;;;13.70;6.35;;;;;;;5.29;100.00;102596.00;5007998;29;20356;-73
2022/10/19 03:59:18;;;;;;;14.47;6.17;;;;;;;5.27;100.00;102605.41;5006257;29;20088;-73
2022/10/19 04:01:49;;;;;;;11.87;6.10;;;;;;;5.27;100.00;102607.13;5008090;29;20035;-73
2022/10/19 04:04:20;;;;;;;13.23;5.57;;;;;;;5.19;100.00;102609.41;5007602;29;20122;-73
2022/10/19 04:06:54;;;;;;;11.53;6.37;;;;;;;5.25;100.00;102614.81;5007509;29;20027;-72
2022/10/19 04:09:26;;;;;;;12.73;6.75;;;;;;;5.17;100.00;102612.75;5007400;29;20117;-72
2022/10/19 04:11:57;;;;;;;13.33;6.60;;;;;;;5.13;100.00;102605.72;5007265;29;20113;-73
2022/10/19 04:14:29;;;;;;;11.77;6.43;;;;;;;5.13;100.00;102603.13;5007608;29;20034;-73
2022/10/19 04:17:01;;;;;;;14.57;7.07;;;;;;;5.12;100.00;102602.25;5007527;29;20033;-73
2022/10/19 04:19:32;;;;;;;16.60;6.85;;;;;;;5.06;100.00;102595.13;5007217;29;20064;-72
2022/10/19 04:22:03;;;;;;;18.33;9.33;;;;;;;5.03;100.00;102588.97;5007517;29;20055;-71
2022/10/19 04:24:35;;;;;;;10.10;5.43;;;;;;;5.02;100.00;102595.81;5007163;29;20113;-71
2022/10/19 04:27:06;;;;;;;13.73;6.50;;;;;;;5.05;100.00;102597.66;5005895;29;20023;-72
2022/10/19 04:29:38;;;;;;;15.03;6.77;;;;;;;5.00;100.00;102599.19;5007402;29;20042;-72
2022/10/19 04:32:09;;;;;;;11.97;6.43;;;;;;;4.99;100.00;102595.72;5006931;29;20034;-71
2022/10/19 04:34:40;;;;;;;19.13;6.47;;;;;;;4.98;100.00;102595.66;5006788;29;20065;-71
2022/10/19 04:37:12;;;;;;;14.87;7.60;;;;;;;4.98;100.00;102593.94;5006024;29;20064;-71
2022/10/19 04:39:43;;;;;;;18.47;6.97;;;;;;;4.88;100.00;102584.94;5006872;29;20175;-72
2022/10/19 04:42:15;;;;;;;9.10;5.93;;;;;;;4.91;100.00;102585.06;5006111;29;20519;-72
2022/10/19 04:44:46;;;;;;;13.00;7.30;;;;;;;4.89;100.00;102583.25;5006422;29;20068;-72
2022/10/19 04:47:18;;;;;;;17.70;8.37;;;;;;;4.85;100.00;102590.00;5006389;29;20472;-72
2022/10/19 04:49:49;;;;;;;18.23;7.47;;;;;;;4.92;100.00;102583.34;5006784;29;20046;-72
2022/10/19 04:52:20;;;;;;;15.23;7.40;;;;;;;4.90;100.00;102585.88;5006604;29;20098;-71
2022/10/19 04:54:52;;;;;;;18.33;7.43;;;;;;;4.88;100.00;102584.94;5006842;29;20039;-72
2022/10/19 04:57:23;;;;;;;13.77;7.20;;;;;;;4.86;100.00;102583.13;5006589;29;20114;-70
2022/10/19 04:59:54;;;;;;;16.30;8.10;;;;;;;4.81;100.00;102598.44;5006539;29;20399;-71
2022/10/19 05:02:26;;;;;;;13.50;9.17;;;;;;;4.89;100.00;102598.75;5006464;29;20090;-70
2022/10/19 05:04:57;;;;;;;13.20;8.20;;;;;;;4.83;100.00;102588.16;5005466;29;20149;-71
2022/10/19 05:07:28;;;;;;;20.33;8.17;;;;;;;4.80;100.00;102590.63;5006092;29;20113;-70
2022/10/19 05:10:00;;;;;;;14.47;7.80;;;;;;;4.80;100.00;102595.78;5006396;29;20063;-71
2022/10/19 05:12:31;;;;;;;15.00;8.90;;;;;;;4.72;100.00;102596.38;5006440;29;20042;-71
2022/10/19 05:15:03;;;;;;;16.33;8.37;;;;;;;4.72;100.00;102592.91;5006354;29;20041;-71
2022/10/19 05:17:35;;;;;;;15.03;8.07;;;;;;;4.77;100.00;102587.94;5006507;29;20096;-71
2022/10/19 05:20:07;;;;;;;18.33;9.27;;;;;;;4.73;100.00;102587.81;5007997;29;20031;-71
2022/10/19 05:22:38;;;;;;;18.30;9.75;;;;;;;4.70;100.00;102594.53;5006751;29;20400;-70
2022/10/19 05:25:10;;;;;;;17.93;8.17;;;;;;;4.67;100.00;102584.97;5011951;29;20043;-71
2022/10/19 05:27:41;;;;;;;14.13;8.27;;;;;;;4.62;100.00;102580.44;5009431;29;20035;-71
2022/10/19 05:30:13;;;;;;;22.67;8.77;;;;;;;4.57;100.00;102578.56;4990912;29;20062;-71
2022/10/19 05:32:44;;;;;;;12.97;7.43;;;;;;;4.60;100.00;102564.88;5007001;29;20030;-71
2022/10/19 05:35:16;;;;;;;18.00;8.20;;;;;;;4.56;100.00;102568.16;5004566;29;20062;-71
2022/10/19 05:37:47;;;;;;;19.03;9.27;;;;;;;4.56;100.00;102575.91;5006041;29;20034;-71
2022/10/19 05:40:19;;;;;;;15.67;8.03;;;;;;;4.52;100.00;102562.00;5005753;29;20621;-70
2022/10/19 05:42:50;;;;;;;15.60;8.93;;;;;;;4.53;100.00;102562.88;5006095;29;20540;-70
2022/10/19 05:45:21;;;;;;;16.80;9.50;;;;;;;4.57;100.00;102564.75;5005886;29;20068;-71
2022/10/19 05:47:53;;;;;;;19.00;10.07;;;;;;;4.56;100.00;102565.59;5004855;29;20035;-70
2022/10/19 05:50:24;;;;;;;13.53;9.77;;;;;;;4.53;100.00;102565.44;5004660;29;20039;-70
2022/10/19 05:52:55;;;;;;;14.97;10.10;;;;;;;4.49;100.00;102567.03;5005722;29;20074;-71
2022/10/19 05:55:27;;;;;;;18.73;9.80;;;;;;;4.43;100.00;102560.72;5005779;29;20398;-70
2022/10/19 05:57:58;;;;;;;22.23;10.23;;;;;;;4.51;100.00;102564.50;5005726;29;20031;-71
2022/10/19 06:00:30;;;;;;;25.23;11.07;;;;;;;4.49;100.00;102560.97;5005763;29;20038;-70
2022/10/19 06:03:01;;;;;;;27.93;10.23;;;;;;;4.45;100.00;102564.25;5005730;29;20074;-71
2022/10/19 06:05:35;;;;;;;21.53;11.60;;;;;;;4.46;100.00;102558.25;5005649;29;20104;-71
2022/10/19 06:08:06;;;;;;;18.45;10.98;;;;;;;4.47;100.00;102562.63;5005262;29;20034;-70
2022/10/19 06:10:38;;;;;;;22.20;10.77;;;;;;;4.42;100.00;102556.38;5005470;29;20035;-71
2022/10/19 06:13:10;;;;;;;20.27;10.93;;;;;;;4.43;100.00;102551.28;5005424;29;20218;-71
2022/10/19 06:15:41;;;;;;;15.00;11.32;;;;;;;4.44;100.00;102547.88;5005757;29;20038;-71
2022/10/19 06:18:13;;;;;;;24.90;13.17;;;;;;;4.47;100.00;102550.56;5006075;29;20039;-70
2022/10/19 06:20:44;;;;;;;28.80;11.67;;;;;;;4.45;100.00;102549.63;5005716;29;20043;-71
2022/10/19 06:23:15;;;;;;;20.60;12.17;;;;;;;4.48;100.00;102551.47;5005448;29;20050;-71
2022/10/19 06:25:47;;;;;;;22.83;12.93;;;;;;;4.52;100.00;102546.50;5006003;29;20479;-70
2022/10/19 06:28:18;;;;;;;26.87;13.80;;;;;;;4.53;100.00;102543.09;5004265;29;20066;-70
2022/10/19 06:30:49;;;;;;;21.93;12.47;;;;;;;4.48;100.00;102554.94;5005379;29;20088;-70
2022/10/19 06:33:21;;;;;;;15.63;12.33;;;;;;;4.54;100.00;102557.78;5005613;29;20039;-70
2022/10/19 06:35:52;;;;;;;24.67;13.70;;;;;;;4.60;100.00;102554.53;5005378;29;20070;-70
2022/10/19 06:38:24;;;;;;;32.77;14.90;;;;;;;4.68;100.00;102558.31;5005023;29;20109;-71
2022/10/19 06:40:59;;;;;;;29.97;14.17;;;;;;;4.72;100.00;102557.63;5005443;29;20059;-71
2022/10/19 06:43:31;;;;;;;25.70;14.13;;;;;;;4.79;100.00;102557.88;5005614;29;20182;-71
2022/10/19 06:46:07;;;;;;;24.00;15.10;;;;;;;4.81;100.00;102558.81;5005331;29;20129;-71
2022/10/19 06:48:38;;;;;;;28.27;15.07;;;;;;;4.86;100.00;102559.84;5005239;29;20394;-71
2022/10/19 06:51:11;;;;;;;25.33;14.07;;;;;;;4.89;100.00;102559.97;5005206;29;20122;-71
2022/10/19 06:53:43;;;;;;;23.45;15.07;;;;;;;4.96;100.00;102559.41;5005133;29;20096;-71
2022/10/19 06:56:14;;;;;;;27.07;15.90;;;;;;;5.03;100.00;102561.41;5005815;29;20047;-70
2022/10/19 06:58:46;;;;;;;32.37;16.37;;;;;;;5.06;100.00;102563.22;5004004;29;20039;-70
2022/10/19 07:01:18;;;;;;;24.65;15.90;;;;;;;5.22;100.00;102567.28;5007582;29;20092;-71
2022/10/19 07:03:52;;;;;;;29.20;16.30;;;;;;;5.18;100.00;102568.84;5008694;29;20049;-70
2022/10/19 07:06:26;;;;;;;27.52;16.58;;;;;;;5.32;100.00;102559.03;5008620;29;20051;-70
2022/10/19 07:08:57;;;;;;;35.28;15.95;;;;;;;5.33;100.00;102560.81;5008326;29;20035;-71
2022/10/19 07:11:28;;;;;;;28.87;17.57;;;;;;;5.40;100.00;102549.84;5008625;29;20041;-70
2022/10/19 07:14:00;;;;;;;25.37;15.37;;;;;;;5.47;100.00;102561.31;5007662;29;20390;-71
2022/10/19 07:16:31;;;;;;;25.70;15.87;;;;;;;5.50;100.00;102564.00;5008932;29;20118;-71
2022/10/19 07:19:03;;;;;;;33.93;16.70;;;;;;;5.62;100.00;102569.63;5008356;29;20476;-71
2022/10/19 07:21:39;;;;;;;27.27;17.50;;;;;;;5.74;100.00;102565.72;5008626;29;20491;-71
2022/10/19 07:24:11;;;;;;;28.30;16.70;;;;;;;5.81;100.00;102567.69;5008290;29;20119;-70
2022/10/19 07:26:42;;;;;;;26.47;15.87;;;;;;;5.85;100.00;102574.75;5008507;29;20069;-71
2022/10/19 07:29:14;;;;;;;24.27;16.07;;;;;;;6.05;100.00;102562.53;5008164;29;20122;-71
2022/10/19 07:31:45;;;;;;;27.80;17.07;;;;;;;6.13;100.00;102561.09;5007814;29;20395;-71
2022/10/19 07:34:16;;;;;;;23.40;16.67;;;;;;;6.20;100.00;102570.84;5007836;29;20042;-71
2022/10/19 07:36:48;;;;;;;27.47;18.00;;;;;;;6.36;100.00;102569.66;5006848;29;20055;-71
2022/10/19 07:39:20;;;;;;;26.90;16.93;;;;;;;6.46;100.00;102559.59;4991829;29;20046;-71
2022/10/19 07:41:51;;;;;;;27.03;18.00;;;;;;;6.58;100.00;102552.19;5007925;29;20047;-71
2022/10/19 07:44:22;;;;;;;25.43;17.67;;;;;;;6.70;100.00;102554.31;5008532;29;20059;-71
2022/10/19 07:46:54;;;;;;;36.17;19.43;;;;;;;6.82;100.00;102553.81;5007018;29;20059;-71
2022/10/19 07:49:25;;;;;;;29.33;17.23;;;;;;;6.90;100.00;102555.78;5007852;29;20171;-71
2022/10/19 07:51:57;;;;;;;23.63;17.63;;;;;;;7.04;100.00;102545.84;5007528;29;20037;-71
2022/10/19 07:54:29;;;;;;;26.63;17.45;;;;;;;7.10;100.00;102547.78;5007761;29;20175;-72
2022/10/19 07:57:00;;;;;;;28.90;18.40;;;;;;;7.20;100.00;102543.72;5006826;29;20121;-71
2022/10/19 07:59:33;;;;;;;28.40;18.03;;;;;;;7.42;100.00;102547.81;5007935;29;20080;-71
2022/10/19 08:02:12;;;;;;;26.58;17.85;;;;;;;7.44;100.00;102548.75;5007632;29;20387;-71
2022/10/19 08:04:44;;;;;;;25.98;16.75;;;;;;;7.61;100.00;102544.88;5007675;29;20365;-71
2022/10/19 08:07:15;;;;;;;29.30;17.83;;;;;;;7.75;100.00;102539.22;5007875;29;20091;-71
2022/10/19 08:09:46;;;;;;;23.13;16.10;;;;;;;7.78;100.00;102537.56;5006336;29;20078;-72
2022/10/19 08:12:18;;;;;;;26.50;16.77;;;;;;;7.88;100.00;102541.28;5006317;29;20039;-72
2022/10/19 08:14:49;;;;;;;25.07;17.17;;;;;;;8.06;100.00;102542.63;5005972;29;20043;-72
2022/10/19 08:17:20;;;;;;;18.13;16.03;;;;;;;8.19;100.00;102545.59;5006571;29;20086;-72
2022/10/19 08:19:52;;;;;;;20.93;15.10;;;;;;;8.31;100.00;102541.53;5007477;29;20041;-70
2022/10/19 08:22:23;;;;;;;24.70;15.30;;;;;;;8.40;100.00;102532.25;5007264;29;20043;-71
2022/10/19 08:24:54;;;;;;;24.23;14.90;;;;;;;8.54;100.00;102531.72;5007499;29;20049;-72
2022/10/19 08:27:26;;;;;;;25.47;14.13;;;;;;;8.71;100.00;102525.19;5007466;29;20044;-72
2022/10/19 08:29:57;;;;;;;25.13;14.77;;;;;;;8.76;100.00;102518.38;5006116;29;20115;-72
2022/10/19 08:32:28;;;;;;;21.73;12.27;;;;;;;8.91;100.00;102512.63;5006836;29;20038;-72
2022/10/19 08:35:00;;;;;;;22.70;11.20;;;;;;;9.08;100.00;102513.00;5007103;29;20039;-72
2022/10/19 08:37:31;;;;;;;16.27;11.13;;;;;;;9.22;100.00;102512.41;5006985;29;20041;-72
2022/10/19 08:40:05;;;;;;;19.65;10.38;;;;;;;9.32;100.00;102509.13;5005900;29;20063;-72
2022/10/19 08:43:13;;;;;;;17.20;10.38;;;;;;;9.54;100.00;102509.56;5006389;29;20550;-72
2022/10/19 08:46:23;;;;;;;16.92;8.68;;;;;;;9.65;100.00;102503.69;5021577;29;20047;-73
2022/10/19 08:48:55;;;;;;;20.58;11.25;;;;;;;9.91;100.00;102503.28;5007427;29;20065;-72
2022/10/19 08:51:32;;;;;;;17.40;8.70;;;;;;;10.30;100.00;102496.97;5007915;29;20493;-73
2022/10/19 08:54:11;;;;;;;15.30;8.40;;;;;;;10.50;100.00;102507.78;5008289;29;20046;-72
2022/10/19 08:57:19;;;;;;;16.23;7.43;;;;;;;10.81;100.00;102507.34;5011305;29;20045;-73
2022/10/19 09:00:01;;;;;;;15.38;7.43;;;;;;;11.11;100.00;102502.53;5009154;29;20476;-73
2022/10/19 09:02:36;;;;;;;17.60;7.07;;;;;;;11.52;100.00;102505.59;5007232;29;20080;-72
2022/10/19 09:05:21;;;;;;;17.38;6.85;;;;;;;11.73;100.00;102500.59;5007061;29;20038;-71
2022/10/19 09:07:53;;;;;;;17.38;7.00;;;;;;;11.92;97.46;102493.84;5006513;29;20031;-71
2022/10/19 09:10:33;;;;;;;13.52;4.85;;;;;;;12.38;97.40;102490.72;5006734;29;20475;-72
2022/10/19 09:13:34;;;;;;;13.93;5.47;;;;;;;12.51;93.37;102499.50;5006640;29;20467;-70
2022/10/19 09:16:10;;;;;;;15.50;5.22;;;;;;;12.79;92.13;102487.50;5006412;29;20038;-71
2022/10/19 09:18:43;;;;;;;15.43;5.95;;;;;;;13.07;88.78;102500.69;5006633;29;20049;-71
2022/10/19 09:21:28;;;;;;;15.07;5.30;;;;;;;13.35;88.40;102508.69;5006881;29;20115;-72
2022/10/19 09:24:26;;;;;;;12.63;4.80;;;;;;;13.57;86.95;102509.63;5006596;29;20130;-71
2022/10/19 09:27:00;;;;;;;13.70;4.88;;;;;;;13.61;83.20;102516.63;5005762;29;20035;-72
2022/10/19 09:29:46;;;;;;;12.63;4.68;;;;;;;13.98;83.90;102521.94;5006089;29;20043;-71
2022/10/19 09:32:23;;;;;;;10.05;3.85;;;;;;;13.75;80.55;102516.66;5006061;29;20476;-71
2022/10/19 09:35:01;;;;;;;16.02;3.92;;;;;;;14.22;81.10;102510.59;5004536;29;20031;-72
2022/10/19 09:37:40;;;;;;;10.75;3.67;;;;;;;14.47;78.68;102503.53;5005240;29;20066;-71
2022/10/19 09:40:17;;;;;;;11.13;3.97;;;;;;;14.66;76.88;102499.16;5005982;29;20038;-71
2022/10/19 09:42:55;;;;;;;10.85;3.33;;;;;;;15.20;76.58;102495.47;5004811;29;20059;-71
2022/10/19 09:45:35;;;;;;;14.63;4.60;;;;;;;15.16;75.30;102499.88;5005845;29;20038;-72
2022/10/19 09:48:40;;;;;;;11.75;3.58;;;;;;;15.60;74.54;102492.63;5006104;29;20057;-72
2022/10/19 09:51:13;;;;;;;10.93;4.30;;;;;;;15.69;69.42;102488.19;5005600;29;20058;-72
2022/10/19 09:53:54;;;;;;;11.93;4.25;;;;;;;15.88;70.71;102479.34;5006114;29;20034;-72
2022/10/19 09:56:27;;;;;;;11.10;3.22;;;;;;;15.99;68.13;102466.97;5004967;29;20156;-72
2022/10/19 09:58:58;;;;;;;9.32;2.97;;;;;;;16.50;67.59;102471.72;5005710;29;20046;-72
2022/10/19 10:01:35;;;;;;;9.97;3.10;;;;;;;16.40;67.13;102463.06;5005964;29;20086;-72
2022/10/19 10:04:12;;;;;;;6.63;2.78;;;;;;;16.26;65.48;102460.59;5005264;29;20098;-72
2022/10/19 10:06:46;;;;;;;12.43;3.58;;;;;;;16.23;64.26;102452.72;5005691;29;20122;-72
2022/10/19 10:09:24;;;;;;;8.55;3.17;;;;;;;16.49;65.09;102454.22;5005673;29;20084;-72
2022/10/19 10:11:58;;;;;;;11.25;3.03;;;;;;;16.51;62.93;102457.69;5006141;29;20459;-72
2022/10/19 10:14:34;;;;;;;10.40;3.92;;;;;;;16.67;62.63;102469.78;5005533;29;20380;-71
2022/10/19 10:17:21;;;;;;;10.68;3.60;;;;;;;16.48;64.24;102463.00;5005383;29;20483;-72
2022/10/19 10:19:58;;;;;;;8.98;3.40;;;;;;;16.30;64.08;102461.44;5004628;29;20038;-72
2022/10/19 10:22:35;;;;;;;11.43;3.20;;;;;;;16.52;62.81;102467.34;5005731;29;20079;-72
2022/10/19 10:25:17;;;;;;;14.82;4.18;;;;;;;17.14;61.78;102472.75;5005539;29;20031;-72
2022/10/19 10:27:57;;;;;;;7.30;3.47;;;;;;;17.54;60.95;102466.91;5005305;29;20390;-72
2022/10/19 10:30:36;;;;;;;11.90;3.17;;;;;;;18.14;59.68;102462.47;5005255;29;20121;-72
2022/10/19 10:33:15;;;;;;;10.35;3.63;;;;;;;18.11;58.42;102452.84;5005960;29;20060;-72
2022/10/19 10:35:52;;;;;;;9.38;2.90;;;;;;;18.66;56.76;102450.94;5007274;29;20088;-72
2022/10/19 10:38:32;;;;;;;11.30;2.95;;;;;;;19.23;55.07;102451.53;5009447;29;20122;-72
2022/10/19 10:41:11;;;;;;;7.65;2.92;;;;;;;19.92;52.72;102449.88;5009203;29;20046;-73
2022/10/19 10:43:58;;;;;;;8.00;3.03;;;;;;;20.05;53.74;102439.84;5007596;29;20087;-73
2022/10/19 10:46:46;;;;;;;8.90;3.03;;;;;;;20.37;51.88;102436.34;5009030;29;20034;-72
2022/10/19 10:49:27;;;;;;;11.30;3.33;;;;;;;20.83;48.38;102439.47;5008979;29;20111;-73
2022/10/19 10:52:08;;;;;;;7.75;3.35;;;;;;;21.01;49.83;102442.47;5009451;29;20042;-72
2022/10/19 10:54:55;;;;;;;10.82;3.05;;;;;;;20.73;47.30;102436.22;5008793;29;20039;-72
2022/10/19 10:57:31;;;;;;;9.27;3.67;;;;;;;20.78;46.55;102438.75;5008915;29;20472;-72
2022/10/19 11:00:11;;;;;;;12.55;3.47;;;;;;;20.92;47.72;102425.09;5009143;29;20035;-73
2022/10/19 11:03:06;;;;;;;21.40;5.10;;;;;;;21.65;46.26;102415.72;5009285;29;20379;-72
2022/10/19 11:05:45;;;;;;;11.90;3.65;;;;;;;21.77;45.04;102417.97;5009480;29;20034;-72
2022/10/19 11:08:25;;;;;;;11.02;3.78;;;;;;;21.25;46.08;102412.56;5008928;29;20043;-72
2022/10/19 11:11:05;;;;;;;9.43;3.95;;;;;;;21.36;45.74;102417.50;5009071;29;20098;-72
2022/10/19 11:13:48;;;;;;;8.00;3.60;;;;;;;22.33;43.24;102408.06;5009015;29;20042;-72
2022/10/19 11:16:34;;;;;;;10.07;4.05;;;;;;;22.77;43.98;102401.09;5009144;29;20038;-73
2022/10/19 11:19:17;;;;;;;10.15;3.65;;;;;;;22.74;44.68;102405.66;5009322;29;20030;-73
2022/10/19 11:22:07;;;;;;;10.18;3.67;;;;;;;22.37;41.38;102397.28;5009386;29;20053;-72
2022/10/19 11:25:16;;;;;;;8.70;3.88;;;;;;;23.66;40.88;102385.16;5008402;29;20480;-73
2022/10/19 11:27:50;;;;;;;9.30;3.78;;;;;;;23.30;38.94;102377.78;5008022;29;20105;-72
2022/10/19 11:30:23;;;;;;;8.27;3.53;;;;;;;23.64;38.39;102377.22;5008333;29;20053;-71
2022/10/19 11:33:06;;;;;;;11.95;3.88;;;;;;;23.60;39.01;102370.31;5009015;29;20043;-72
2022/10/19 11:35:51;;;;;;;10.82;4.72;;;;;;;23.80;40.27;102368.59;5008410;29;20383;-71
2022/10/19 11:38:48;;;;;;;15.13;4.53;;;;;;;25.54;38.11;102357.81;5008939;29;20454;-72
2022/10/19 11:41:25;;;;;;;9.45;4.55;;;;;;;25.27;36.35;102344.91;5008660;29;20360;-74
2022/10/19 11:44:24;;;;;;;8.43;4.03;;;;;;;25.44;36.68;102338.72;5007725;29;20395;-74
2022/10/19 11:47:11;;;;;;;12.20;4.53;;;;;;;24.88;35.50;102329.91;5007119;29;20047;-72
2022/10/19 11:49:57;;;;;;;14.45;4.10;;;;;;;25.24;35.29;102315.66;5008466;29;20035;-72
2022/10/19 11:52:45;;;;;;;10.07;4.18;;;;;;;25.70;33.96;102303.59;5007724;29;20035;-72
2022/10/19 11:55:31;;;;;;;16.45;5.05;;;;;;;26.08;35.21;102300.69;5008267;29;20433;-72